createdAt,value
2023-06-12T00:00:40.512Z,7.50
2023-06-12T00:03:07.780Z,8.05
2023-06-12T00:05:34.730Z,7.78
2023-06-12T00:08:01.885Z,7.55
2023-06-12T00:10:28.755Z,7.30
2023-06-12T00:12:56.091Z,7.35
2023-06-12T00:15:23.012Z,7.95
2023-06-12T00:17:49.917Z,7.35
2023-06-12T00:20:16.823Z,7.53
2023-06-12T00:22:44.694Z,7.30
2023-06-12T00:25:11.738Z,7.90
2023-06-12T00:27:38.627Z,7.60
2023-06-12T00:30:05.942Z,7.50
2023-06-12T00:32:32.880Z,7.45
2023-06-12T00:34:59.782Z,7.80
2023-06-12T00:37:29.029Z,7.55
2023-06-12T00:39:56.073Z,7.70
2023-06-12T00:42:23.018Z,7.60
2023-06-12T00:44:49.902Z,7.68
2023-06-12T00:47:16.861Z,8.20
2023-06-12T00:49:44.053Z,7.45
2023-06-12T00:52:13.741Z,7.82
2023-06-12T00:54:41.395Z,8.10
2023-06-12T00:57:09.325Z,7.88
2023-06-12T00:59:37.031Z,7.72
2023-06-12T01:02:04.925Z,7.68
2023-06-12T01:04:32.314Z,8.10
2023-06-12T01:07:07.548Z,7.70
2023-06-12T01:09:41.087Z,7.50
2023-06-12T01:12:08.258Z,7.60
2023-06-12T01:14:35.154Z,7.97
2023-06-12T01:17:03.447Z,8.18
2023-06-12T01:19:30.513Z,8.27
2023-06-12T01:22:00.852Z,8.17
2023-06-12T01:24:36.352Z,8.20
2023-06-12T01:27:15.533Z,8.13
2023-06-12T01:29:50.832Z,8.27
2023-06-12T01:32:18.177Z,8.70
2023-06-12T01:34:52.129Z,8.68
2023-06-12T01:37:30.490Z,8.55
2023-06-12T01:39:58.819Z,8.70
2023-06-12T01:42:28.978Z,8.73
2023-06-12T01:44:56.026Z,8.73
2023-06-12T01:47:23.407Z,9.27
2023-06-12T01:49:50.564Z,9.10
2023-06-12T01:52:17.537Z,9.00
2023-06-12T01:54:50.732Z,9.82
2023-06-12T01:57:20.682Z,9.40
2023-06-12T01:59:48.084Z,8.77
2023-06-12T02:02:16.271Z,9.15
2023-06-12T02:04:43.306Z,8.55
2023-06-12T02:07:10.483Z,9.43
2023-06-12T02:09:37.485Z,8.57
2023-06-12T02:12:04.821Z,9.27
2023-06-12T02:14:31.982Z,9.25
2023-06-12T02:16:58.868Z,8.52
2023-06-12T02:19:27.109Z,9.23
2023-06-12T02:21:55.125Z,9.88
2023-06-12T02:24:25.645Z,9.05
2023-06-12T02:26:52.625Z,8.85
2023-06-12T02:29:19.497Z,8.43
2023-06-12T02:31:46.369Z,8.65
2023-06-12T02:34:13.248Z,9.20
2023-06-12T02:36:41.337Z,9.95
2023-06-12T02:39:09.124Z,9.57
2023-06-12T02:41:39.453Z,9.75
2023-06-12T02:44:06.286Z,9.23
2023-06-12T02:46:33.303Z,9.40
2023-06-12T02:49:00.238Z,9.18
2023-06-12T02:51:28.236Z,9.07
2023-06-12T02:53:55.334Z,9.43
2023-06-12T02:56:22.229Z,8.93
2023-06-12T02:58:49.129Z,8.98
2023-06-12T03:01:18.188Z,10.27
2023-06-12T03:03:45.363Z,9.32
2023-06-12T03:06:13.115Z,9.48
2023-06-12T03:08:40.284Z,8.82
2023-06-12T03:11:07.569Z,9.88
2023-06-12T03:13:34.446Z,9.95
2023-06-12T03:16:01.280Z,9.35
2023-06-12T03:18:28.191Z,9.80
2023-06-12T03:20:55.176Z,9.60
2023-06-12T03:23:22.033Z,9.80
2023-06-12T03:25:49.048Z,10.20
2023-06-12T03:28:16.081Z,10.35
2023-06-12T03:30:42.910Z,10.20
2023-06-12T03:33:11.083Z,10.15
2023-06-12T03:35:37.949Z,9.57
2023-06-12T03:38:04.821Z,10.95
2023-06-12T03:40:31.706Z,9.70
2023-06-12T03:42:58.616Z,10.48
2023-06-12T03:45:25.584Z,10.68
2023-06-12T03:47:52.507Z,10.70
2023-06-12T03:50:21.099Z,10.43
2023-06-12T03:52:47.979Z,10.70
2023-06-12T03:55:14.872Z,10.30
2023-06-12T03:57:41.722Z,10.70
2023-06-12T04:00:09.713Z,11.70
2023-06-12T04:02:37.758Z,10.65
2023-06-12T04:05:04.915Z,10.88
2023-06-12T04:07:31.787Z,10.88
2023-06-12T04:09:58.695Z,11.07
2023-06-12T04:12:25.789Z,11.52
2023-06-12T04:14:52.630Z,11.20
2023-06-12T04:17:19.473Z,10.90
2023-06-12T04:19:46.406Z,10.77
2023-06-12T04:22:14.258Z,10.77
2023-06-12T04:24:43.520Z,10.88
2023-06-12T04:27:11.490Z,11.20
2023-06-12T04:29:44.472Z,11.43
2023-06-12T04:32:14.618Z,11.27
2023-06-12T04:34:42.414Z,11.48
2023-06-12T04:37:09.989Z,11.18
2023-06-12T04:39:38.612Z,11.80
2023-06-12T04:42:06.944Z,11.05
2023-06-12T04:44:35.936Z,11.00
2023-06-12T04:47:06.225Z,10.70
2023-06-12T04:49:34.186Z,10.05
2023-06-12T04:52:04.303Z,10.60
2023-06-12T04:54:36.976Z,10.40
2023-06-12T04:57:04.838Z,10.90
2023-06-12T04:59:38.499Z,11.00
2023-06-12T05:02:06.311Z,11.02
2023-06-12T05:04:34.169Z,10.68
2023-06-12T05:07:04.365Z,10.35
2023-06-12T05:09:31.539Z,10.48
2023-06-12T05:11:59.499Z,11.18
2023-06-12T05:14:26.335Z,10.60
2023-06-12T05:16:53.599Z,10.10
2023-06-12T05:19:20.521Z,10.77
2023-06-12T05:21:50.581Z,11.48
2023-06-12T05:24:17.701Z,12.05
2023-06-12T05:26:44.629Z,12.10
2023-06-12T05:29:11.858Z,11.20
2023-06-12T05:31:38.839Z,10.73
2023-06-12T05:34:05.805Z,11.27
2023-06-12T05:36:32.686Z,11.73
2023-06-12T05:38:59.541Z,11.93
2023-06-12T05:41:26.794Z,12.23
2023-06-12T05:43:53.734Z,12.20
2023-06-12T05:46:20.663Z,12.10
2023-06-12T05:48:47.577Z,13.00
2023-06-12T05:51:14.445Z,13.55
2023-06-12T05:53:45.644Z,13.07
2023-06-12T05:56:16.417Z,13.30
2023-06-12T05:58:45.238Z,13.30
2023-06-12T06:01:12.988Z,13.30
2023-06-12T06:03:44.234Z,13.05
2023-06-12T06:06:12.911Z,13.70
2023-06-12T06:08:39.833Z,13.00
2023-06-12T06:11:06.757Z,13.15
2023-06-12T06:13:33.694Z,13.15
2023-06-12T06:16:00.715Z,12.65
2023-06-12T06:18:27.679Z,13.15
2023-06-12T06:20:54.670Z,12.88
2023-06-12T06:23:24.277Z,12.48
2023-06-12T06:25:53.235Z,13.02
2023-06-12T06:28:20.154Z,12.77
2023-06-12T06:30:47.033Z,12.80
2023-06-12T06:33:14.010Z,12.93
2023-06-12T06:35:40.960Z,14.13
2023-06-12T06:38:07.940Z,13.00
2023-06-12T06:40:34.788Z,12.70
2023-06-12T06:43:02.349Z,12.70
2023-06-12T06:45:29.185Z,12.60
2023-06-12T06:47:56.111Z,13.25
2023-06-12T06:50:23.066Z,12.30
2023-06-12T06:52:50.032Z,12.57
2023-06-12T06:55:16.992Z,12.50
2023-06-12T06:57:44.110Z,12.93
2023-06-12T07:00:12.778Z,12.02
2023-06-12T07:02:44.274Z,12.98
2023-06-12T07:05:11.737Z,11.23
2023-06-12T07:07:52.116Z,12.40
2023-06-12T07:10:23.456Z,12.30
2023-06-12T07:12:57.546Z,11.30
2023-06-12T07:15:25.784Z,11.70
2023-06-12T07:17:53.570Z,11.43
2023-06-12T07:20:21.209Z,11.07
2023-06-12T07:22:48.126Z,11.18
2023-06-12T07:25:15.581Z,11.43
2023-06-12T07:27:42.619Z,11.65
2023-06-12T07:30:10.133Z,11.35
2023-06-12T07:32:37.008Z,11.35
2023-06-12T07:35:04.620Z,11.52
2023-06-12T07:37:36.194Z,11.82
2023-06-12T07:40:05.091Z,12.13
2023-06-12T07:42:32.030Z,11.85
2023-06-12T07:44:58.913Z,11.55
2023-06-12T07:47:25.816Z,10.48
2023-06-12T07:49:52.704Z,10.68
2023-06-12T07:52:19.670Z,11.05
2023-06-12T07:54:46.558Z,11.13
2023-06-12T07:57:13.416Z,11.90
2023-06-12T07:59:40.360Z,11.55
2023-06-12T08:02:07.744Z,11.40
2023-06-12T08:04:34.662Z,11.63
2023-06-12T08:07:02.211Z,11.57
2023-06-12T08:09:29.129Z,11.48
2023-06-12T08:11:56.008Z,11.45
2023-06-12T08:14:22.858Z,11.73
2023-06-12T08:16:50.422Z,10.95
2023-06-12T08:19:17.352Z,9.90
2023-06-12T08:21:44.226Z,10.02
2023-06-12T08:24:14.199Z,10.00
2023-06-12T08:26:41.202Z,10.32
2023-06-12T08:29:08.305Z,9.60
2023-06-12T08:31:35.420Z,10.63
2023-06-12T08:34:02.363Z,10.65
2023-06-12T08:36:29.302Z,10.10
2023-06-12T08:38:56.586Z,10.25
2023-06-12T08:41:25.778Z,10.10
2023-06-12T08:43:54.757Z,10.27
2023-06-12T08:46:21.788Z,9.55
2023-06-12T08:48:48.908Z,10.43
2023-06-12T08:51:16.463Z,11.75
2023-06-12T08:53:43.584Z,10.05
2023-06-12T08:56:11.208Z,10.23
2023-06-12T08:58:38.103Z,9.00
2023-06-12T09:01:06.177Z,9.70
2023-06-12T09:03:33.516Z,9.90
2023-06-12T09:06:01.047Z,9.85
2023-06-12T09:08:27.945Z,9.27
2023-06-12T09:10:54.948Z,8.82
2023-06-12T09:13:21.793Z,9.35
2023-06-12T09:15:52.720Z,9.30
2023-06-12T09:20:49.275Z,9.50
2023-06-12T09:23:17.188Z,10.20
2023-06-12T09:25:55.458Z,9.55
2023-06-12T09:28:38.279Z,8.65
2023-06-12T09:31:06.010Z,9.40
2023-06-12T09:33:33.318Z,8.65
2023-06-12T09:36:00.905Z,8.57
2023-06-12T09:38:31.002Z,8.50
2023-06-12T09:41:01.454Z,7.97
2023-06-12T09:43:28.848Z,8.45
2023-06-12T09:45:56.723Z,7.93
2023-06-12T09:48:24.113Z,7.47
2023-06-12T09:50:51.804Z,7.63
2023-06-12T09:53:19.068Z,7.60
2023-06-12T09:55:47.141Z,7.72
2023-06-12T09:58:14.426Z,7.65
2023-06-12T10:00:41.436Z,7.68
2023-06-12T10:03:11.338Z,7.90
2023-06-12T10:05:42.149Z,7.82
2023-06-12T10:08:09.097Z,8.05
2023-06-12T10:10:36.581Z,7.57
2023-06-12T10:13:04.117Z,7.75
2023-06-12T10:15:31.739Z,8.32
2023-06-12T10:17:59.291Z,7.97
2023-06-12T10:20:26.914Z,8.15
2023-06-12T10:22:55.347Z,7.50
2023-06-12T10:25:22.502Z,7.20
2023-06-12T10:27:49.849Z,7.57
2023-06-12T10:30:17.809Z,7.53
2023-06-12T10:32:45.347Z,7.93
2023-06-12T10:35:12.784Z,7.97
2023-06-12T10:37:47.936Z,7.75
2023-06-12T10:40:26.511Z,8.13
2023-06-12T10:43:05.560Z,9.00
2023-06-12T10:45:33.362Z,8.48
2023-06-12T10:48:12.132Z,7.97
2023-06-12T10:50:51.854Z,8.73
2023-06-12T10:53:23.578Z,8.98
2023-06-12T10:55:55.744Z,8.80
2023-06-12T10:58:24.579Z,8.00
2023-06-12T11:00:52.787Z,8.50
2023-06-12T11:03:32.104Z,8.75
2023-06-12T11:06:18.419Z,8.02
2023-06-12T11:08:47.344Z,8.55
2023-06-12T11:11:15.170Z,8.70
2023-06-12T11:13:46.700Z,8.27
2023-06-12T11:16:14.601Z,8.40
2023-06-12T11:18:41.567Z,8.43
2023-06-12T11:21:10.827Z,9.15
2023-06-12T11:23:39.553Z,8.82
2023-06-12T11:26:08.803Z,7.95
2023-06-12T11:28:35.882Z,7.90
2023-06-12T11:33:34.485Z,8.07
2023-06-12T11:36:01.760Z,7.60
2023-06-12T11:40:58.715Z,8.43
2023-06-12T11:43:25.845Z,8.90
2023-06-12T11:45:54.119Z,8.68
2023-06-12T11:50:53.323Z,8.25
2023-06-12T11:53:21.834Z,7.90
2023-06-12T11:58:21.795Z,6.65
2023-06-12T12:00:50.764Z,6.63
2023-06-12T12:03:18.056Z,6.40
2023-06-12T12:05:45.315Z,6.10
2023-06-12T12:08:13.075Z,6.38
2023-06-12T12:10:43.141Z,6.18
2023-06-12T12:13:10.141Z,5.80
2023-06-12T12:15:43.666Z,5.85
2023-06-12T12:18:18.968Z,5.93
2023-06-12T12:20:49.089Z,6.43
2023-06-12T12:23:16.216Z,6.28
2023-06-12T12:25:43.315Z,6.15
2023-06-12T12:28:10.393Z,5.75
2023-06-12T12:30:37.942Z,5.90
2023-06-12T12:33:04.987Z,6.18
2023-06-12T12:35:31.945Z,6.05
2023-06-12T12:37:59.395Z,6.70
2023-06-12T12:40:28.177Z,7.10
2023-06-12T12:42:55.956Z,7.28
2023-06-12T12:45:22.913Z,7.55
2023-06-12T12:47:49.884Z,7.68
2023-06-12T12:50:22.473Z,7.97
2023-06-12T12:52:52.176Z,7.47
2023-06-12T12:55:19.130Z,7.88
2023-06-12T12:57:48.327Z,7.75
2023-06-12T13:00:16.413Z,8.43
2023-06-12T13:02:43.809Z,7.20
2023-06-12T13:05:12.234Z,6.90
2023-06-12T13:07:39.725Z,6.00
2023-06-12T13:10:11.830Z,5.70
2023-06-12T13:12:40.344Z,6.30
2023-06-12T13:15:08.186Z,6.32
2023-06-12T13:17:35.120Z,6.20
2023-06-12T13:20:02.231Z,6.15
2023-06-12T13:22:29.305Z,6.40
2023-06-12T13:24:56.310Z,6.22
2023-06-12T13:27:23.675Z,6.28
2023-06-12T13:29:50.579Z,5.82
2023-06-12T13:32:17.521Z,6.43
2023-06-12T13:34:44.610Z,6.13
2023-06-12T13:37:12.792Z,6.18
2023-06-12T13:39:40.514Z,5.63
2023-06-12T13:42:07.722Z,5.75
2023-06-12T13:44:34.643Z,5.45
2023-06-12T13:47:01.592Z,5.63
2023-06-12T13:49:28.549Z,5.95
2023-06-12T13:51:55.962Z,5.00
2023-06-12T13:54:23.083Z,5.53
2023-06-12T13:56:50.553Z,4.68
2023-06-12T13:59:18.215Z,4.80
2023-06-12T14:01:47.543Z,5.10
2023-06-12T14:04:16.069Z,4.57
2023-06-12T14:06:43.137Z,4.93
2023-06-12T14:09:10.118Z,4.75
2023-06-12T14:11:37.338Z,5.10
2023-06-12T14:14:04.862Z,5.20
2023-06-12T14:16:31.969Z,5.30
2023-06-12T14:18:59.200Z,5.22
2023-06-12T14:21:26.423Z,5.28
2023-06-12T14:23:53.380Z,5.18
2023-06-12T14:26:21.436Z,5.30
2023-06-12T14:28:48.328Z,5.53
2023-06-12T14:31:15.397Z,5.40
2023-06-12T14:33:45.501Z,5.25
2023-06-12T14:36:13.516Z,5.47
2023-06-12T14:38:40.671Z,5.70
2023-06-12T14:41:07.755Z,5.80
2023-06-12T14:43:34.625Z,5.18
2023-06-12T14:46:01.691Z,5.95
2023-06-12T14:48:28.631Z,5.55
2023-06-12T14:50:55.605Z,5.60
2023-06-12T14:53:22.540Z,6.13
2023-06-12T14:55:49.463Z,5.75
2023-06-12T14:58:16.445Z,5.85
2023-06-12T15:00:45.413Z,6.13
2023-06-12T15:03:12.805Z,6.30
2023-06-12T15:05:39.720Z,6.13
2023-06-12T15:08:06.793Z,5.85
2023-06-12T15:10:34.082Z,6.72
2023-06-12T15:13:09.712Z,5.90
2023-06-12T15:15:38.136Z,6.30
2023-06-12T15:18:05.768Z,5.88
2023-06-12T15:20:32.992Z,5.80
2023-06-12T15:22:59.981Z,5.72
2023-06-12T15:25:27.129Z,6.13
2023-06-12T15:27:54.482Z,5.90
2023-06-12T15:30:21.685Z,5.30
2023-06-12T15:32:48.707Z,5.70
2023-06-12T15:35:16.017Z,5.70
2023-06-12T15:37:43.243Z,5.43
2023-06-12T15:40:10.546Z,4.93
2023-06-12T15:42:38.380Z,5.45
2023-06-12T15:45:05.642Z,5.63
2023-06-12T15:47:32.617Z,5.60
2023-06-12T15:49:59.535Z,4.95
2023-06-12T15:52:26.458Z,5.28
2023-06-12T15:54:53.549Z,4.70
2023-06-12T15:57:21.378Z,5.55
2023-06-12T15:59:48.255Z,5.03
2023-06-12T16:02:15.167Z,4.75
2023-06-12T16:04:42.137Z,5.22
2023-06-12T16:07:09.085Z,5.00
2023-06-12T16:09:36.046Z,5.00
2023-06-12T16:12:02.942Z,4.75
2023-06-12T16:14:29.828Z,4.72
2023-06-12T16:16:57.004Z,5.40
2023-06-12T16:19:24.001Z,5.10
2023-06-12T16:21:50.970Z,4.53
2023-06-12T16:24:17.870Z,4.10
2023-06-12T16:26:44.917Z,4.15
2023-06-12T16:29:11.836Z,3.85
2023-06-12T16:31:38.817Z,3.92
2023-06-12T16:34:05.815Z,4.20
2023-06-12T16:36:32.755Z,4.03
2023-06-12T16:38:59.605Z,4.63
2023-06-12T16:41:27.834Z,4.40
2023-06-12T16:43:54.753Z,4.20
2023-06-12T16:46:21.713Z,3.70
2023-06-12T16:48:49.740Z,3.80
2023-06-12T16:51:16.726Z,4.13
2023-06-12T16:53:43.670Z,3.83
2023-06-12T16:56:10.765Z,3.78
2023-06-12T16:58:37.650Z,3.97
2023-06-12T17:01:04.573Z,3.85
2023-06-12T17:03:31.475Z,4.15
2023-06-12T17:05:58.903Z,3.90
2023-06-12T17:08:28.825Z,4.30
2023-06-12T17:10:55.961Z,4.28
2023-06-12T17:13:23.048Z,4.38
2023-06-12T17:15:51.560Z,4.50
2023-06-12T17:18:18.686Z,4.90
2023-06-12T17:20:45.749Z,4.57
2023-06-12T17:23:13.490Z,5.40
2023-06-12T17:25:40.433Z,5.32
2023-06-12T17:28:09.664Z,4.30
2023-06-12T17:30:38.154Z,4.63
2023-06-12T17:33:05.390Z,3.95
2023-06-12T17:35:32.681Z,5.22
2023-06-12T17:38:00.425Z,4.57
2023-06-12T17:40:27.248Z,4.60
2023-06-12T17:42:54.134Z,4.35
2023-06-12T17:45:20.995Z,4.95
2023-06-12T17:47:48.950Z,4.97
2023-06-12T17:50:16.365Z,5.30
2023-06-12T17:52:43.432Z,5.38
2023-06-12T17:55:11.012Z,5.32
2023-06-12T17:57:37.880Z,5.53
2023-06-12T18:00:05.360Z,6.18
2023-06-12T18:02:32.337Z,5.85
2023-06-12T18:04:59.311Z,6.30
2023-06-12T18:07:26.189Z,6.43
2023-06-12T18:09:53.117Z,6.30
2023-06-12T18:12:20.043Z,5.65
2023-06-12T18:14:46.904Z,5.65
2023-06-12T18:17:14.939Z,5.55
2023-06-12T18:19:42.311Z,5.57
2023-06-12T18:22:09.359Z,5.82
2023-06-12T18:24:36.437Z,7.05
2023-06-12T18:27:03.475Z,6.65
2023-06-12T18:29:30.457Z,7.43
2023-06-12T18:31:57.389Z,6.57
2023-06-12T18:34:24.740Z,7.15
2023-06-12T18:36:51.695Z,7.03
2023-06-12T18:39:19.004Z,7.05
2023-06-12T18:41:45.891Z,6.70
2023-06-12T18:44:16.151Z,6.72
2023-06-12T18:46:43.452Z,6.30
2023-06-12T18:49:10.473Z,6.07
2023-06-12T18:51:37.660Z,5.93
2023-06-12T18:54:05.598Z,6.05
2023-06-12T18:56:34.733Z,6.28
2023-06-12T18:59:02.165Z,7.00
2023-06-12T19:01:29.241Z,6.20
2023-06-12T19:03:56.163Z,6.43
2023-06-12T19:06:23.273Z,6.63
2023-06-12T19:08:50.319Z,5.90
2023-06-12T19:11:17.307Z,6.20
2023-06-12T19:13:44.346Z,6.57
2023-06-12T19:16:11.349Z,6.55
2023-06-12T19:18:38.274Z,6.15
2023-06-12T19:21:05.253Z,6.50
2023-06-12T19:23:32.458Z,6.82
2023-06-12T19:25:59.431Z,6.30
2023-06-12T19:28:27.528Z,6.55
2023-06-12T19:30:54.492Z,6.32
2023-06-12T19:33:21.690Z,5.82
2023-06-12T19:35:49.041Z,6.10
2023-06-12T19:38:15.934Z,6.10
2023-06-12T19:40:42.794Z,6.28
2023-06-12T19:43:09.669Z,6.47
2023-06-12T19:45:36.745Z,5.60
2023-06-12T19:48:03.819Z,6.15
2023-06-12T19:50:30.834Z,5.82
2023-06-12T19:52:57.710Z,6.53
2023-06-12T19:55:24.764Z,6.15
2023-06-12T19:57:51.692Z,6.78
2023-06-12T20:00:18.735Z,7.38
2023-06-12T20:02:45.645Z,7.00
2023-06-12T20:05:12.924Z,6.97
2023-06-12T20:07:40.050Z,6.90
2023-06-12T20:10:07.344Z,7.47
2023-06-12T20:12:34.209Z,7.50
2023-06-12T20:15:01.987Z,7.88
2023-06-12T20:17:28.929Z,7.47
2023-06-12T20:19:56.045Z,7.53
2023-06-12T20:22:23.450Z,7.05
2023-06-12T20:24:50.436Z,7.40
2023-06-12T20:27:18.276Z,7.57
2023-06-12T20:29:45.475Z,7.40
2023-06-12T20:32:12.605Z,8.02
2023-06-12T20:34:39.768Z,8.32
2023-06-12T20:37:06.679Z,8.48
2023-06-12T20:39:33.619Z,9.07
2023-06-12T20:42:00.781Z,9.00
2023-06-12T20:44:27.706Z,8.65
2023-06-12T20:46:54.641Z,9.25
2023-06-12T20:49:22.017Z,9.23
2023-06-12T20:51:48.952Z,8.93
2023-06-12T20:54:16.090Z,9.15
2023-06-12T20:56:43.342Z,10.30
2023-06-12T20:59:10.207Z,9.60
2023-06-12T21:01:37.387Z,9.90
2023-06-12T21:04:04.536Z,10.48
2023-06-12T21:06:32.052Z,10.73
2023-06-12T21:08:59.562Z,10.15
2023-06-12T21:11:32.709Z,10.95
2023-06-12T21:14:01.918Z,11.10
2023-06-12T21:16:28.805Z,10.75
2023-06-12T21:18:56.096Z,10.35
2023-06-12T21:21:23.050Z,11.05
2023-06-12T21:23:49.913Z,10.98
2023-06-12T21:26:16.883Z,11.63
2023-06-12T21:28:43.734Z,10.63
2023-06-12T21:31:13.613Z,11.07
2023-06-12T21:33:41.487Z,10.73
2023-06-12T21:36:08.436Z,11.73
2023-06-12T21:38:35.801Z,10.60
2023-06-12T21:41:02.724Z,11.60
2023-06-12T21:43:29.683Z,10.77
2023-06-12T21:45:56.564Z,10.50
2023-06-12T21:48:23.795Z,11.05
2023-06-12T21:50:50.735Z,10.25
2023-06-12T21:53:19.890Z,10.85
2023-06-12T21:55:51.317Z,10.48
2023-06-12T21:58:22.339Z,10.38
2023-06-12T22:03:15.965Z,11.00
2023-06-12T22:05:42.793Z,10.07
2023-06-12T22:08:09.822Z,10.75
2023-06-12T22:10:36.760Z,10.45
2023-06-12T22:13:03.769Z,10.80
2023-06-12T22:15:30.788Z,10.60
2023-06-12T22:17:57.787Z,11.60
2023-06-12T22:20:24.727Z,11.20
2023-06-12T22:22:51.666Z,11.35
2023-06-12T22:25:20.795Z,11.07
2023-06-12T22:27:47.952Z,10.52
2023-06-12T22:30:15.065Z,10.40
2023-06-12T22:32:41.981Z,10.73
2023-06-12T22:35:09.086Z,10.68
2023-06-12T22:37:35.939Z,11.02
2023-06-12T22:40:05.855Z,11.02
2023-06-12T22:42:32.678Z,11.15
2023-06-12T22:44:59.571Z,11.32
2023-06-12T22:47:26.947Z,11.13
2023-06-12T22:49:55.402Z,12.40
2023-06-12T22:52:22.590Z,12.68
2023-06-12T22:54:50.571Z,11.65
2023-06-12T22:57:17.437Z,11.57
2023-06-12T22:59:44.329Z,12.10
2023-06-12T23:02:11.378Z,12.40
2023-06-12T23:04:38.782Z,11.57
2023-06-12T23:07:08.179Z,12.43
2023-06-12T23:09:35.210Z,11.82
2023-06-12T23:12:02.518Z,12.25
2023-06-12T23:14:29.421Z,12.73
2023-06-12T23:16:59.786Z,12.15
2023-06-12T23:19:32.730Z,12.77
2023-06-12T23:22:00.206Z,13.45
2023-06-12T23:24:29.117Z,12.45
2023-06-12T23:26:57.192Z,12.85
2023-06-12T23:29:24.124Z,12.05
2023-06-12T23:31:51.146Z,13.23
2023-06-12T23:34:18.213Z,12.27
2023-06-12T23:36:45.107Z,12.60
2023-06-12T23:39:13.503Z,12.60
2023-06-12T23:41:40.403Z,12.43
2023-06-12T23:44:07.302Z,12.35
2023-06-12T23:46:34.148Z,11.93
2023-06-12T23:49:00.983Z,12.77
2023-06-12T23:51:27.844Z,11.63
2023-06-12T23:53:54.757Z,11.73
2023-06-12T23:56:21.897Z,12.32
2023-06-12T23:58:48.792Z,12.73
